Air Navigation Services of Czech Republic
Airport: LKNA Updated:  28.01.2021 02:57:24  UTC
 METAR LKNA 28.01. 03:00 ...
METAR LKNA 280300Z 26003KT 4100 -SN SCT023 OVC035 M04/M06 Q1010 RMK WHT=
 TAF LKNA 27.01. 23:00 ...
TAF LKNA 272300Z 2800/2900 28004KT CAVOK      BECMG 2800/2802 9999 BKN010 OVC018      TEMPO 2802/2806 2000 BR      PROB30 TEMPO 2804/2806 -SN      BECMG 2810/2812 SCT025      BECMG 2813/2815 17006KT 5000 BKN010 OVC015      TEMPO 2815/2900 1000 RASN BR BKN002 OVC006=